Terminal Aerodrome Forecast
Issued by NWS Northern Indiana

Home | Current Version | Previous Version | Graphics & Text | Print | Product List | Glossary On
Versions: 1 2 3 4 5 6 7 8 9 10 11 12 13
000
FTUS43 KIWX 290538
TAFFWA
TAF
KFWA 290538Z 2906/3006 20008KT P6SM BKN100
     FM291600 24010KT P6SM SCT040 BKN250
     FM300300 25004KT P6SM SCT250=

USA.gov is the U.S. government's official web portal to all federal, state and local government web resources and services.